sensor_id;sensor_type;location;lat;lon;timestamp;temperature;humidity
46335;DHT22;32051;48.882;9.210;2023-02-15T00:01:35;1.10;99.90
46335;DHT22;32051;48.882;9.210;2023-02-15T00:04:01;1.10;99.90
46335;DHT22;32051;48.882;9.210;2023-02-15T00:06:26;1.00;99.90
46335;DHT22;32051;48.882;9.210;2023-02-15T00:08:53;1.00;99.90
46335;DHT22;32051;48.882;9.210;2023-02-15T00:11:19;1.00;99.90
46335;DHT22;32051;48.882;9.210;2023-02-15T00:14:12;0.90;99.90
46335;DHT22;32051;48.882;9.210;2023-02-15T00:16:39;0.90;99.90
46335;DHT22;32051;48.882;9.210;2023-02-15T00:19:05;0.90;99.90
46335;DHT22;32051;48.882;9.210;2023-02-15T00:21:32;0.90;99.90
46335;DHT22;32051;48.882;9.210;2023-02-15T00:23:59;0.90;99.90
46335;DHT22;32051;48.882;9.210;2023-02-15T00:26:26;0.90;99.90
46335;DHT22;32051;48.882;9.210;2023-02-15T00:28:52;0.90;99.90
46335;DHT22;32051;48.882;9.210;2023-02-15T00:31:19;0.90;99.90
46335;DHT22;32051;48.882;9.210;2023-02-15T00:33:45;0.90;99.90
46335;DHT22;32051;48.882;9.210;2023-02-15T00:36:11;0.90;99.90
46335;DHT22;32051;48.882;9.210;2023-02-15T00:38:37;0.90;99.90
46335;DHT22;32051;48.882;9.210;2023-02-15T00:41:05;0.80;99.90
46335;DHT22;32051;48.882;9.210;2023-02-15T00:43:32;0.80;99.90
46335;DHT22;32051;48.882;9.210;2023-02-15T00:45:58;0.80;99.90
46335;DHT22;32051;48.882;9.210;2023-02-15T00:48:24;0.80;99.90
46335;DHT22;32051;48.882;9.210;2023-02-15T00:50:52;0.80;99.90
46335;DHT22;32051;48.882;9.210;2023-02-15T00:53:18;0.80;99.90
46335;DHT22;32051;48.882;9.210;2023-02-15T00:55:45;0.80;99.90
46335;DHT22;32051;48.882;9.210;2023-02-15T00:58:12;0.70;99.90
46335;DHT22;32051;48.882;9.210;2023-02-15T01:00:40;0.70;99.90
46335;DHT22;32051;48.882;9.210;2023-02-15T01:03:06;0.70;99.90
46335;DHT22;32051;48.882;9.210;2023-02-15T01:05:32;0.70;99.90
46335;DHT22;32051;48.882;9.210;2023-02-15T01:07:58;0.70;99.90
46335;DHT22;32051;48.882;9.210;2023-02-15T01:22:41;0.60;99.90
46335;DHT22;32051;48.882;9.210;2023-02-15T01:25:07;0.40;99.90
46335;DHT22;32051;48.882;9.210;2023-02-15T01:27:32;0.40;99.90
46335;DHT22;32051;48.882;9.210;2023-02-15T01:29:58;0.40;99.90
46335;DHT22;32051;48.882;9.210;2023-02-15T01:32:24;0.30;99.90
46335;DHT22;32051;48.882;9.210;2023-02-15T01:34:49;0.40;99.90
46335;DHT22;32051;48.882;9.210;2023-02-15T01:37:15;0.40;99.90
46335;DHT22;32051;48.882;9.210;2023-02-15T01:39:41;0.30;99.90
46335;DHT22;32051;48.882;9.210;2023-02-15T01:42:10;0.40;99.90
46335;DHT22;32051;48.882;9.210;2023-02-15T01:47:47;0.30;99.90
46335;DHT22;32051;48.882;9.210;2023-02-15T01:50:29;0.30;99.90
46335;DHT22;32051;48.882;9.210;2023-02-15T01:55:36;0.30;99.90
46335;DHT22;32051;48.882;9.210;2023-02-15T01:58:03;0.20;99.90
46335;DHT22;32051;48.882;9.210;2023-02-15T02:00:30;0.20;99.90
46335;DHT22;32051;48.882;9.210;2023-02-15T02:02:57;0.20;99.90
46335;DHT22;32051;48.882;9.210;2023-02-15T02:05:24;0.20;99.90
46335;DHT22;32051;48.882;9.210;2023-02-15T02:10:20;0.10;99.90
46335;DHT22;32051;48.882;9.210;2023-02-15T02:12:54;0.10;99.90
46335;DHT22;32051;48.882;9.210;2023-02-15T02:15:27;0.00;99.90
46335;DHT22;32051;48.882;9.210;2023-02-15T02:28:48;0.00;99.90
46335;DHT22;32051;48.882;9.210;2023-02-15T02:34:19;-0.40;99.90
46335;DHT22;32051;48.882;9.210;2023-02-15T02:40:03;-0.40;99.90
46335;DHT22;32051;48.882;9.210;2023-02-15T02:42:59;-0.40;99.90
46335;DHT22;32051;48.882;9.210;2023-02-15T02:45:39;-0.40;99.90
46335;DHT22;32051;48.882;9.210;2023-02-15T02:48:11;-0.40;99.90
46335;DHT22;32051;48.882;9.210;2023-02-15T02:50:39;-0.40;99.90
46335;DHT22;32051;48.882;9.210;2023-02-15T02:53:05;-0.40;99.90
46335;DHT22;32051;48.882;9.210;2023-02-15T02:55:36;-0.40;99.90
46335;DHT22;32051;48.882;9.210;2023-02-15T05:06:37;-0.50;99.90
46335;DHT22;32051;48.882;9.210;2023-02-15T05:09:03;-1.10;99.90
46335;DHT22;32051;48.882;9.210;2023-02-15T05:11:29;-1.10;99.90
46335;DHT22;32051;48.882;9.210;2023-02-15T05:13:55;-1.20;99.90
46335;DHT22;32051;48.882;9.210;2023-02-15T05:16:20;-1.20;99.90
46335;DHT22;32051;48.882;9.210;2023-02-15T05:18:46;-1.20;99.90
46335;DHT22;32051;48.882;9.210;2023-02-15T05:21:12;-1.20;99.90
46335;DHT22;32051;48.882;9.210;2023-02-15T05:23:39;-1.20;99.90
46335;DHT22;32051;48.882;9.210;2023-02-15T05:26:05;-1.20;99.90
46335;DHT22;32051;48.882;9.210;2023-02-15T05:28:49;-1.20;99.90
46335;DHT22;32051;48.882;9.210;2023-02-15T05:31:17;-1.20;99.90
46335;DHT22;32051;48.882;9.210;2023-02-15T05:33:43;-1.20;99.90
46335;DHT22;32051;48.882;9.210;2023-02-15T05:36:10;-1.20;99.90
46335;DHT22;32051;48.882;9.210;2023-02-15T05:38:36;-1.20;99.90
46335;DHT22;32051;48.882;9.210;2023-02-15T05:41:08;-1.20;99.90
46335;DHT22;32051;48.882;9.210;2023-02-15T05:43:35;-1.20;99.90
46335;DHT22;32051;48.882;9.210;2023-02-15T05:46:02;-1.20;99.90
46335;DHT22;32051;48.882;9.210;2023-02-15T05:48:28;-1.30;99.90
46335;DHT22;32051;48.882;9.210;2023-02-15T05:51:03;-1.30;99.90
46335;DHT22;32051;48.882;9.210;2023-02-15T06:20:20;-1.30;99.90
46335;DHT22;32051;48.882;9.210;2023-02-15T06:22:46;-1.60;99.90
46335;DHT22;32051;48.882;9.210;2023-02-15T06:25:11;-1.70;99.90
46335;DHT22;32051;48.882;9.210;2023-02-15T07:11:32;-1.70;99.90
46335;DHT22;32051;48.882;9.210;2023-02-15T07:14:16;-1.60;99.90
46335;DHT22;32051;48.882;9.210;2023-02-15T07:16:42;-1.50;99.90
46335;DHT22;32051;48.882;9.210;2023-02-15T07:19:08;-1.50;99.90
46335;DHT22;32051;48.882;9.210;2023-02-15T07:21:34;-1.50;99.90
46335;DHT22;32051;48.882;9.210;2023-02-15T07:24:00;-1.50;99.90
46335;DHT22;32051;48.882;9.210;2023-02-15T07:26:26;-1.50;99.90
46335;DHT22;32051;48.882;9.210;2023-02-15T07:28:52;-1.50;99.90
46335;DHT22;32051;48.882;9.210;2023-02-15T07:31:18;-1.40;99.90
46335;DHT22;32051;48.882;9.210;2023-02-15T08:36:09;-0.10;99.90
46335;DHT22;32051;48.882;9.210;2023-02-15T08:38:35;-0.10;99.90
46335;DHT22;32051;48.882;9.210;2023-02-15T08:48:38;0.10;99.90
46335;DHT22;32051;48.882;9.210;2023-02-15T08:58:47;0.30;99.90
46335;DHT22;32051;48.882;9.210;2023-02-15T09:08:36;1.00;99.90
46335;DHT22;32051;48.882;9.210;2023-02-15T10:33:02;1.30;99.90
46335;DHT22;32051;48.882;9.210;2023-02-15T10:38:03;4.00;99.90
46335;DHT22;32051;48.882;9.210;2023-02-15T11:02:04;8.60;99.90
46335;DHT22;32051;48.882;9.210;2023-02-15T11:25:01;12.20;99.90
46335;DHT22;32051;48.882;9.210;2023-02-15T11:27:33;12.90;98.20
46335;DHT22;32051;48.882;9.210;2023-02-15T11:37:46;14.60;94.50
46335;DHT22;32051;48.882;9.210;2023-02-15T11:40:27;14.90;93.70
46335;DHT22;32051;48.882;9.210;2023-02-15T11:42:56;15.00;93.50
46335;DHT22;32051;48.882;9.210;2023-02-15T11:45:26;15.20;92.90
46335;DHT22;32051;48.882;9.210;2023-02-15T11:47:52;14.80;92.40
46335;DHT22;32051;48.882;9.210;2023-02-15T11:50:23;14.90;92.30
46335;DHT22;32051;48.882;9.210;2023-02-15T11:52:50;15.00;92.70
46335;DHT22;32051;48.882;9.210;2023-02-15T11:55:21;15.10;92.60
46335;DHT22;32051;48.882;9.210;2023-02-15T11:57:58;14.70;92.30
46335;DHT22;32051;48.882;9.210;2023-02-15T12:00:31;14.10;99.90
46335;DHT22;32051;48.882;9.210;2023-02-15T12:03:19;13.70;93.90
46335;DHT22;32051;48.882;9.210;2023-02-15T12:05:50;13.00;94.10
46335;DHT22;32051;48.882;9.210;2023-02-15T12:08:20;13.10;94.90
46335;DHT22;32051;48.882;9.210;2023-02-15T12:10:56;13.30;95.00
46335;DHT22;32051;48.882;9.210;2023-02-15T12:13:22;13.90;94.50
46335;DHT22;32051;48.882;9.210;2023-02-15T12:15:51;14.20;93.10
46335;DHT22;32051;48.882;9.210;2023-02-15T12:18:36;14.10;93.00
46335;DHT22;32051;48.882;9.210;2023-02-15T12:21:07;14.20;92.90
46335;DHT22;32051;48.882;9.210;2023-02-15T12:23:33;14.20;93.10
46335;DHT22;32051;48.882;9.210;2023-02-15T12:26:00;13.90;92.70
46335;DHT22;32051;48.882;9.210;2023-02-15T12:33:39;15.70;91.00
46335;DHT22;32051;48.882;9.210;2023-02-15T13:50:13;13.40;97.30
46335;DHT22;32051;48.882;9.210;2023-02-15T14:00:48;11.90;96.40
46335;DHT22;32051;48.882;9.210;2023-02-15T14:11:19;11.20;99.90
46335;DHT22;32051;48.882;9.210;2023-02-15T14:16:48;10.80;97.90
46335;DHT22;32051;48.882;9.210;2023-02-15T14:19:43;10.60;98.20
46335;DHT22;32051;48.882;9.210;2023-02-15T14:25:02;10.30;99.10
46335;DHT22;32051;48.882;9.210;2023-02-15T14:30:10;10.30;99.60
46335;DHT22;32051;48.882;9.210;2023-02-15T14:35:53;10.20;99.50
46335;DHT22;32051;48.882;9.210;2023-02-15T15:16:30;9.60;99.90
46335;DHT22;32051;48.882;9.210;2023-02-15T15:18:57;9.50;99.90
46335;DHT22;32051;48.882;9.210;2023-02-15T15:27:41;9.30;99.90
46335;DHT22;32051;48.882;9.210;2023-02-15T15:33:13;9.20;99.90
46335;DHT22;32051;48.882;9.210;2023-02-15T15:41:48;9.00;99.90
46335;DHT22;32051;48.882;9.210;2023-02-15T16:02:21;8.80;99.90
46335;DHT22;32051;48.882;9.210;2023-02-15T16:10:08;8.50;99.90
46335;DHT22;32051;48.882;9.210;2023-02-15T16:12:47;8.30;99.90
46335;DHT22;32051;48.882;9.210;2023-02-15T16:17:43;8.20;99.90
46335;DHT22;32051;48.882;9.210;2023-02-15T16:20:18;8.10;99.90
46335;DHT22;32051;48.882;9.210;2023-02-15T16:22:59;8.00;99.90
46335;DHT22;32051;48.882;9.210;2023-02-15T16:28:32;7.80;99.90
46335;DHT22;32051;48.882;9.210;2023-02-15T16:31:13;7.70;99.90
46335;DHT22;32051;48.882;9.210;2023-02-15T16:33:40;7.60;99.90
46335;DHT22;32051;48.882;9.210;2023-02-15T16:36:10;7.50;99.90
46335;DHT22;32051;48.882;9.210;2023-02-15T16:41:14;7.40;99.90
46335;DHT22;32051;48.882;9.210;2023-02-15T16:43:43;7.30;99.90
46335;DHT22;32051;48.882;9.210;2023-02-15T16:58:41;7.00;99.90
46335;DHT22;32051;48.882;9.210;2023-02-15T17:06:03;6.90;99.90
46335;DHT22;32051;48.882;9.210;2023-02-15T17:08:43;6.70;99.90
46335;DHT22;32051;48.882;9.210;2023-02-15T17:11:33;6.60;99.90
46335;DHT22;32051;48.882;9.210;2023-02-15T17:16:35;6.40;99.90
46335;DHT22;32051;48.882;9.210;2023-02-15T17:19:07;6.30;99.90
46335;DHT22;32051;48.882;9.210;2023-02-15T17:21:41;6.20;99.90
46335;DHT22;32051;48.882;9.210;2023-02-15T17:24:19;6.10;99.90
46335;DHT22;32051;48.882;9.210;2023-02-15T17:26:50;6.10;99.90
46335;DHT22;32051;48.882;9.210;2023-02-15T17:29:26;6.10;99.90
46335;DHT22;32051;48.882;9.210;2023-02-15T17:31:56;5.90;99.90
46335;DHT22;32051;48.882;9.210;2023-02-15T17:34:46;5.90;99.90
46335;DHT22;32051;48.882;9.210;2023-02-15T17:37:22;5.80;99.90
46335;DHT22;32051;48.882;9.210;2023-02-15T17:39:49;5.60;99.90
46335;DHT22;32051;48.882;9.210;2023-02-15T17:42:14;5.60;99.90
46335;DHT22;32051;48.882;9.210;2023-02-15T17:44:40;5.60;99.90
46335;DHT22;32051;48.882;9.210;2023-02-15T17:47:06;5.50;99.90
46335;DHT22;32051;48.882;9.210;2023-02-15T17:49:31;5.50;99.90
46335;DHT22;32051;48.882;9.210;2023-02-15T17:52:01;5.40;99.90
46335;DHT22;32051;48.882;9.210;2023-02-15T17:54:27;5.40;99.90
46335;DHT22;32051;48.882;9.210;2023-02-15T17:57:13;5.30;99.90
46335;DHT22;32051;48.882;9.210;2023-02-15T17:59:39;5.30;99.90
46335;DHT22;32051;48.882;9.210;2023-02-15T18:02:23;5.30;99.90
46335;DHT22;32051;48.882;9.210;2023-02-15T18:05:14;5.30;99.90
46335;DHT22;32051;48.882;9.210;2023-02-15T18:07:59;5.20;99.90
46335;DHT22;32051;48.882;9.210;2023-02-15T18:10:43;5.20;99.90
46335;DHT22;32051;48.882;9.210;2023-02-15T18:13:28;5.10;99.90
46335;DHT22;32051;48.882;9.210;2023-02-15T18:15:54;5.10;99.90
46335;DHT22;32051;48.882;9.210;2023-02-15T18:18:21;5.00;99.90
46335;DHT22;32051;48.882;9.210;2023-02-15T18:20:48;5.00;99.90
46335;DHT22;32051;48.882;9.210;2023-02-15T18:23:15;4.90;99.90
46335;DHT22;32051;48.882;9.210;2023-02-15T18:25:41;4.90;99.90
46335;DHT22;32051;48.882;9.210;2023-02-15T18:28:10;4.90;99.90
46335;DHT22;32051;48.882;9.210;2023-02-15T18:30:39;4.80;99.90
46335;DHT22;32051;48.882;9.210;2023-02-15T18:33:34;4.80;99.90
46335;DHT22;32051;48.882;9.210;2023-02-15T18:36:04;4.80;99.90
46335;DHT22;32051;48.882;9.210;2023-02-15T18:38:31;4.70;99.90
46335;DHT22;32051;48.882;9.210;2023-02-15T18:40:57;5.00;99.90
46335;DHT22;32051;48.882;9.210;2023-02-15T18:43:23;4.70;99.90
46335;DHT22;32051;48.882;9.210;2023-02-15T18:45:49;4.70;99.90
46335;DHT22;32051;48.882;9.210;2023-02-15T18:48:15;4.70;99.90
46335;DHT22;32051;48.882;9.210;2023-02-15T18:50:41;4.70;99.90
46335;DHT22;32051;48.882;9.210;2023-02-15T18:53:15;4.60;99.90
46335;DHT22;32051;48.882;9.210;2023-02-15T18:55:43;4.70;99.90
46335;DHT22;32051;48.882;9.210;2023-02-15T18:58:15;4.70;99.90
46335;DHT22;32051;48.882;9.210;2023-02-15T19:00:41;4.70;99.90
46335;DHT22;32051;48.882;9.210;2023-02-15T19:05:43;4.70;99.90
46335;DHT22;32051;48.882;9.210;2023-02-15T19:08:16;4.50;99.90
46335;DHT22;32051;48.882;9.210;2023-02-15T19:10:43;4.60;99.90
46335;DHT22;32051;48.882;9.210;2023-02-15T19:13:09;4.60;99.90
46335;DHT22;32051;48.882;9.210;2023-02-15T19:15:35;4.60;99.90
46335;DHT22;32051;48.882;9.210;2023-02-15T19:25:30;4.40;99.90
46335;DHT22;32051;48.882;9.210;2023-02-15T19:30:27;4.60;99.90
46335;DHT22;32051;48.882;9.210;2023-02-15T19:32:58;4.80;99.90
46335;DHT22;32051;48.882;9.210;2023-02-15T19:35:33;4.50;99.90
46335;DHT22;32051;48.882;9.210;2023-02-15T19:38:02;4.00;99.90
46335;DHT22;32051;48.882;9.210;2023-02-15T19:40:31;4.40;99.90
46335;DHT22;32051;48.882;9.210;2023-02-15T19:42:57;4.40;99.90
46335;DHT22;32051;48.882;9.210;2023-02-15T19:45:28;4.40;99.90
46335;DHT22;32051;48.882;9.210;2023-02-15T19:47:54;4.40;99.90
46335;DHT22;32051;48.882;9.210;2023-02-15T19:50:22;4.30;99.90
46335;DHT22;32051;48.882;9.210;2023-02-15T19:52:48;4.30;99.90
46335;DHT22;32051;48.882;9.210;2023-02-15T19:55:28;4.20;99.90
46335;DHT22;32051;48.882;9.210;2023-02-15T19:57:55;4.20;99.90
46335;DHT22;32051;48.882;9.210;2023-02-15T20:00:23;4.20;99.90
46335;DHT22;32051;48.882;9.210;2023-02-15T20:02:51;4.20;99.90
46335;DHT22;32051;48.882;9.210;2023-02-15T20:05:18;4.20;99.90
46335;DHT22;32051;48.882;9.210;2023-02-15T20:07:46;4.20;99.90
46335;DHT22;32051;48.882;9.210;2023-02-15T20:10:27;4.20;99.90
46335;DHT22;32051;48.882;9.210;2023-02-15T20:12:53;4.20;99.90
46335;DHT22;32051;48.882;9.210;2023-02-15T20:15:28;4.20;99.90
46335;DHT22;32051;48.882;9.210;2023-02-15T20:17:55;4.20;99.90
46335;DHT22;32051;48.882;9.210;2023-02-15T20:20:23;4.10;99.90
46335;DHT22;32051;48.882;9.210;2023-02-15T20:22:50;4.10;99.90
46335;DHT22;32051;48.882;9.210;2023-02-15T20:25:22;4.10;99.90
46335;DHT22;32051;48.882;9.210;2023-02-15T20:27:50;4.10;99.90
46335;DHT22;32051;48.882;9.210;2023-02-15T20:30:18;4.20;99.90
46335;DHT22;32051;48.882;9.210;2023-02-15T20:32:44;4.20;99.90
46335;DHT22;32051;48.882;9.210;2023-02-15T20:35:15;4.10;99.90
46335;DHT22;32051;48.882;9.210;2023-02-15T20:37:46;4.20;99.90
46335;DHT22;32051;48.882;9.210;2023-02-15T20:40:23;4.10;99.90
46335;DHT22;32051;48.882;9.210;2023-02-15T20:42:49;4.10;99.90
46335;DHT22;32051;48.882;9.210;2023-02-15T20:45:21;3.90;99.90
46335;DHT22;32051;48.882;9.210;2023-02-15T20:47:50;3.90;99.90
46335;DHT22;32051;48.882;9.210;2023-02-15T20:50:22;3.80;99.90
46335;DHT22;32051;48.882;9.210;2023-02-15T20:52:49;4.00;99.90
46335;DHT22;32051;48.882;9.210;2023-02-15T20:55:20;4.00;99.90
46335;DHT22;32051;48.882;9.210;2023-02-15T20:57:46;4.00;99.90
46335;DHT22;32051;48.882;9.210;2023-02-15T21:00:17;3.50;99.90
46335;DHT22;32051;48.882;9.210;2023-02-15T21:02:46;4.10;99.90
46335;DHT22;32051;48.882;9.210;2023-02-15T21:05:21;4.10;99.90
46335;DHT22;32051;48.882;9.210;2023-02-15T21:07:50;4.10;99.90
46335;DHT22;32051;48.882;9.210;2023-02-15T21:10:21;4.10;99.90
46335;DHT22;32051;48.882;9.210;2023-02-15T21:12:48;4.10;99.90
46335;DHT22;32051;48.882;9.210;2023-02-15T21:15:32;4.00;99.90
46335;DHT22;32051;48.882;9.210;2023-02-15T21:18:00;4.10;99.90
46335;DHT22;32051;48.882;9.210;2023-02-15T21:20:29;4.10;99.90
46335;DHT22;32051;48.882;9.210;2023-02-15T21:22:56;4.10;99.90
46335;DHT22;32051;48.882;9.210;2023-02-15T21:25:35;4.00;99.90
46335;DHT22;32051;48.882;9.210;2023-02-15T21:28:01;4.20;99.90
46335;DHT22;32051;48.882;9.210;2023-02-15T21:30:28;3.80;99.90
46335;DHT22;32051;48.882;9.210;2023-02-15T21:32:53;4.20;99.90
46335;DHT22;32051;48.882;9.210;2023-02-15T21:35:20;4.20;99.90
46335;DHT22;32051;48.882;9.210;2023-02-15T21:37:48;4.10;99.90
46335;DHT22;32051;48.882;9.210;2023-02-15T21:40:16;4.10;99.90
46335;DHT22;32051;48.882;9.210;2023-02-15T21:42:43;4.10;99.90
46335;DHT22;32051;48.882;9.210;2023-02-15T21:45:27;4.10;99.90
46335;DHT22;32051;48.882;9.210;2023-02-15T21:48:12;4.00;99.90
46335;DHT22;32051;48.882;9.210;2023-02-15T21:50:38;4.00;99.90
46335;DHT22;32051;48.882;9.210;2023-02-15T21:55:51;4.00;99.90
46335;DHT22;32051;48.882;9.210;2023-02-15T22:00:46;3.80;99.90
46335;DHT22;32051;48.882;9.210;2023-02-15T22:03:12;3.80;99.90
46335;DHT22;32051;48.882;9.210;2023-02-15T22:05:37;3.80;99.90
46335;DHT22;32051;48.882;9.210;2023-02-15T22:08:11;3.70;99.90
46335;DHT22;32051;48.882;9.210;2023-02-15T22:10:37;3.70;99.90
46335;DHT22;32051;48.882;9.210;2023-02-15T22:13:03;3.70;99.90
46335;DHT22;32051;48.882;9.210;2023-02-15T22:15:36;3.60;99.90
46335;DHT22;32051;48.882;9.210;2023-02-15T22:18:02;3.60;99.90
46335;DHT22;32051;48.882;9.210;2023-02-15T22:20:30;3.60;99.90
46335;DHT22;32051;48.882;9.210;2023-02-15T22:22:56;3.60;99.90
46335;DHT22;32051;48.882;9.210;2023-02-15T22:25:24;3.60;99.90
46335;DHT22;32051;48.882;9.210;2023-02-15T22:27:51;3.50;99.90
46335;DHT22;32051;48.882;9.210;2023-02-15T22:30:35;3.50;99.90
46335;DHT22;32051;48.882;9.210;2023-02-15T22:33:01;3.50;99.90
46335;DHT22;32051;48.882;9.210;2023-02-15T22:35:29;3.50;99.90
46335;DHT22;32051;48.882;9.210;2023-02-15T22:37:56;3.50;99.90
46335;DHT22;32051;48.882;9.210;2023-02-15T22:40:31;3.50;99.90
46335;DHT22;32051;48.882;9.210;2023-02-15T22:43:00;3.50;99.90
46335;DHT22;32051;48.882;9.210;2023-02-15T22:45:26;3.50;99.90
46335;DHT22;32051;48.882;9.210;2023-02-15T22:47:54;3.60;99.90
46335;DHT22;32051;48.882;9.210;2023-02-15T22:50:23;3.60;99.90
46335;DHT22;32051;48.882;9.210;2023-02-15T22:52:49;3.60;99.90
46335;DHT22;32051;48.882;9.210;2023-02-15T22:55:18;3.60;99.90
46335;DHT22;32051;48.882;9.210;2023-02-15T22:57:45;3.60;99.90
46335;DHT22;32051;48.882;9.210;2023-02-15T23:00:16;3.70;99.90
46335;DHT22;32051;48.882;9.210;2023-02-15T23:02:43;3.70;99.90
46335;DHT22;32051;48.882;9.210;2023-02-15T23:05:29;3.70;99.90
46335;DHT22;32051;48.882;9.210;2023-02-15T23:07:55;3.60;99.90
46335;DHT22;32051;48.882;9.210;2023-02-15T23:10:24;3.60;99.90
46335;DHT22;32051;48.882;9.210;2023-02-15T23:12:56;3.60;99.90
46335;DHT22;32051;48.882;9.210;2023-02-15T23:31:30;3.50;99.90
46335;DHT22;32051;48.882;9.210;2023-02-15T23:33:58;3.40;99.90
46335;DHT22;32051;48.882;9.210;2023-02-15T23:36:33;3.40;99.90
46335;DHT22;32051;48.882;9.210;2023-02-15T23:39:13;3.30;99.90
